LGTSLGSR

Guest
Details From LGTS - Thessalonik Makedonia
To LGSR - SANTORINI
Flight Number -
Tags generated
Created
Modified
Stats Distance 278 nm / 515 km
Max Altitude 29,600 ft / 9,022 m
Waypoints 4
Social Downloads 3
Likes 0
Share VATSIM

Download

Looking for another format? Having issues loading an existing format? Contact us
Advertisement - Login to hide

Notes

Basic altitude profile: - Ascent Rate: 2500ft/min - Ascent Speed: 250kts - Cruise Altitude: 35000ft - Cruise Speed: 420kts - Descent Rate: 1500ft/min - Descent Speed: 250kts

Route

LGTS SKP UL617 KEA LGSR

ID Type Via Altitude Latitude Longitude Leg Dist Tot Dist Heading (true) Name
O LGTS APT - 0 ft / 0 m 40.51952˚ 22.97202˚ - 0 nm - Thessalonik Makedonia
SKP VOR - 29,600 ft / 9,022 m 39.18083˚ 23.61583˚ 85 nm 85 nm 160° / 160° SKOPELOS VOR-DME
KEA VOR UL617 (AWY-HI) 29,500 ft / 8,992 m 37.55719˚ 24.29783˚ 102 nm 188 nm 162° / 162° KEA VOR-DME
O LGSR APT - 0 ft / 0 m 36.39895˚ 25.47851˚ 89 nm 278 nm 140° / 141° SANTORINI

Altitude Profile

Advertisement - Login to hide

Weather


0- 5 10 15 20 25 30 35+ Temperature / ° C

Clouds and Precipitation
Forecast for 2018-05-26 00:00 UTC. Updated 4 hours ago

Ground ~20,000 ft ~40,000 ft Winds

LGTS

Details ICAO LGTS (SKG)
Name Thessalonik Makedonia
Region Greece
Timezone Europe/Athens (UTC+3.0)
Stats Elevation 22 ft / 7 m (AMSL)
Location 40.519522° 22.972017°
Runways 2
Magnetic Variation 4.667° E

METAR

LGTS 260220Z VRB03KT 9999 FEW018 17/13 Q1014 NOSIG

Decode

TAF

TAF LGTS 252300Z 2600/2624 31010KT 9999 FEW030 BECMG 2610/2612 VRB03KT SCT030 PROB30 TEMPO 2612/2616 5000 TSRA FEW015CB BKN030 BECMG 2618/2620 FEW030

Decode

Departure Runways

ID Width Length Bearing (true) Bearing (mag) Surface Threshold Offset Overrun Length
10 164 ft / 50 m 7,990 ft / 2,435 m 103.95° 99.28° Asphalt 0 ft / 0 m 150 ft / 46 m
16 197 ft / 60 m 7,927 ft / 2,416 m 166.35° 161.68° Asphalt 0 ft / 0 m 200 ft / 61 m
28 164 ft / 50 m 7,990 ft / 2,435 m 283.97° 279.30° Asphalt 0 ft / 0 m 150 ft / 46 m
34 197 ft / 60 m 7,927 ft / 2,416 m 346.36° 341.69° Asphalt 0 ft / 0 m 200 ft / 61 m

LGSR

Details ICAO LGSR (JTR)
Name SANTORINI
Region Greece
Timezone Europe/Athens (UTC+3.0)
Stats Elevation 127 ft / 39 m (AMSL)
Location 36.398949° 25.478507°
Runways 2
Magnetic Variation 4.555° E

METAR

LGSR 260220Z 31007KT 9999 FEW025 19/15 Q1009

Decode

TAF

TAF LGSR 252300Z 2600/2624 34020KT 9999 FEW018

Decode

Destination Runways

ID Width Length Bearing (true) Bearing (mag) Surface Threshold Offset Overrun Length
16L 98 ft / 30 m 6,978 ft / 2,127 m 159.53° 154.98° Asphalt 0 ft / 0 m 909 ft / 277 m
16R 98 ft / 30 m 6,969 ft / 2,124 m 159.56° 155.01° Asphalt 0 ft / 0 m 420 ft / 128 m
34L 98 ft / 30 m 6,969 ft / 2,124 m 339.56° 335.01° Asphalt 0 ft / 0 m 0 ft / 0 m
34R 98 ft / 30 m 6,978 ft / 2,127 m 339.54° 334.99° Asphalt 0 ft / 0 m 0 ft / 0 m

Popular Alternatives